Thursday, February 22, 2018, 12:03 PM EST
Back to Local

KDKK, Chautauqua County/dunkirk

Location: Dunkirk, NY, United States Lat: 42.5
Local Time: 12:03 PM EST (17:03 GMT) Lon: -79.283
Time Zone: US/Eastern Elev: 692 ft

Show me the last for .
Show Decoded

2018-02-22 11:53 METAR KDKK 221653Z AUTO 06004KT 3SM -SN BR FEW005 OVC026 00/M01 A3060 RMK AO2
                 SLP371 P0005 T00001006 =
2018-02-22 11:21 METAR KDKK 221621Z AUTO 06007KT 3SM -SN BR FEW003 OVC026 M01/M01 A3060 RMK AO2
                 P0003 T10061011 =
2018-02-22 11:10 METAR KDKK 221610Z AUTO 05008KT 1 1/4SM -SN BR SCT003 OVC023 M01/M01 A3061 RMK
                 AO2 P0002 T10111011 =
2018-02-22 11:02 METAR KDKK 221602Z AUTO 04007KT 3/4SM -SN BR SCT003 OVC016 M01/M01 A3061 RMK AO2
                 P0001 T10111011 =
2018-02-22 10:53 METAR KDKK 221553Z AUTO 04007KT 3/4SM -SN BR SCT004 OVC014 M01/M01 A3061 RMK AO2
                 SLP374 P0003 T10111011 =
2018-02-22 10:50 METAR KDKK 221550Z AUTO 04007KT 1/2SM SN FZFG FEW004 OVC014 M01/M01 A3061 RMK
                 AO2 P0003 =
2018-02-22 10:29 METAR KDKK 221529Z AUTO 04006KT 1/2SM SN FZFG VV014 M01/M02 A3061 RMK AO2 P0001
                 T10061017 =
2018-02-22 10:10 METAR KDKK 221510Z AUTO 02007KT 3/4SM -SN BR BKN018 OVC027 M01/M02 A3061 RMK AO2
                 P0000 T10061017 =
2018-02-22 10:04 METAR KDKK 221504Z AUTO 02008KT 1 1/4SM -SN BR SCT018 OVC029 M01/M02 A3061 RMK
                 AO2 P0000 T10061017 =
2018-02-22 09:53 METAR KDKK 221453Z AUTO 03007KT 1 1/2SM -SN BR FEW016 BKN031 OVC037 M01/M02
                 A3060 RMK AO2 SNB04 SLP370 P0000 60000 T10061022 51002 =
2018-02-22 09:48 METAR KDKK 221448Z AUTO 04008KT 1 1/4SM -SN BR SCT017 OVC033 M01/M02 A3060 RMK
                 AO2 SNB04 P0000 =
2018-02-22 09:40 METAR KDKK 221440Z AUTO 04008KT 2SM -SN BR SCT017 OVC035 M01/M02 A3059 RMK AO2
                 SNB04 P0000 T10061022 =
2018-02-22 09:33 METAR KDKK 221433Z AUTO 04009KT 1 3/4SM -SN BR BKN017 OVC039 M01/M02 A3060 RMK
                 AO2 SNB04 P0000 T10061022 =
2018-02-22 09:24 METAR KDKK 221424Z AUTO 04010KT 2SM -SN BR BKN017 OVC038 M01/M02 A3059 RMK AO2
                 SNB04 P0000 T10061022 =
2018-02-22 09:02 METAR KDKK 221402Z AUTO 04009KT 10SM BKN019 OVC055 M01/M02 A3060 RMK AO2
                 T10061022 =
2018-02-22 08:53 METAR KDKK 221353Z AUTO 02009KT 10SM SCT019 OVC060 M01/M03 A3060 RMK AO2 SLP370
                 T10061028 =
2018-02-22 07:53 METAR KDKK 221253Z AUTO 03008KT 10SM OVC065 M01/M03 A3059 RMK AO2 SLP368
                 T10111028 =
2018-02-22 06:53 METAR KDKK 221153Z AUTO 01006KT 10SM OVC065 M01/M03 A3059 RMK AO2 SLP368 70011
                 T10061033 10006 21006 58008 =
2018-02-22 05:53 METAR KDKK 221053Z AUTO 05008KT 10SM BKN070 OVC085 00/M03 A3060 RMK AO2 SLP371
                 T00001028 =
2018-02-22 04:53 METAR KDKK 220953Z AUTO 04007KT 10SM BKN080 OVC090 M01/M03 A3061 RMK AO2 SLP375
                 T10061028 =
2018-02-22 03:53 METAR KDKK 220853Z AUTO 04009KT 10SM OVC100 M01/M03 A3062 RMK AO2 SLP376
                 T10061028 58004 =
2018-02-22 02:53 METAR KDKK 220753Z AUTO 04010KT 10SM OVC090 00/M02 A3062 RMK AO2 SLP378
                 T00001022 =
2018-02-22 01:53 METAR KDKK 220653Z AUTO 03007KT 10SM OVC095 01/M02 A3063 RMK AO2 SLP381
                 T00061017 =
2018-02-22 00:53 METAR KDKK 220553Z AUTO 01007KT 10SM OVC100 01/M02 A3063 RMK AO2 SLP379
                 T00061017 10017 20006 53008 =
2018-02-21 23:53 METAR KDKK 220453Z AUTO 32003KT 10SM OVC110 01/M01 A3062 RMK AO2 SLP376
                 T00111011 402000011 =
2018-02-21 22:53 METAR KDKK 220353Z AUTO 00000KT 10SM BKN110 02/M01 A3060 RMK AO2 SLP371
                 T00171006 =
2018-02-21 21:53 METAR KDKK 220253Z AUTO 00000KT 10SM CLR 01/M01 A3061 RMK AO2 SLP369 T00111006
                 53015 =
2018-02-21 20:53 METAR KDKK 220153Z AUTO 00000KT 10SM FEW120 02/M01 A3059 RMK AO2 SLP363
                 T00171006 =
2018-02-21 19:53 METAR KDKK 220053Z AUTO 00000KT 10SM CLR 02/M01 A3057 RMK AO2 SLP356 T00171011 =
2018-02-21 18:53 METAR KDKK 212353Z AUTO 00000KT 10SM SCT120 02/M01 A3056 RMK AO2 SLP352 60000
                 I6000 T00171011 10039 20017 51025 =
2018-02-21 17:53 METAR KDKK 212253Z AUTO 30005KT 10SM OVC065 02/M01 A3054 RMK AO2 SLP347
                 T00171011 =
2018-02-21 16:53 METAR KDKK 212153Z AUTO 30007KT 10SM OVC060 02/00 A3052 RMK AO2 UPE2057 SLP340
                 P0000 T00170000 =
2018-02-21 15:53 METAR KDKK 212053Z AUTO 29006KT 10SM UP BKN041 BKN048 OVC065 02/01 A3049 RMK AO2
                 RAE44UPB1954E1956B28 SLP326 P0000 60000 I3000 T00170011 51031 =
2018-02-21 14:53 METAR KDKK 211953Z AUTO 27007KT 10SM -RA OVC036 02/02 A3045 RMK AO2
                 UPE04B13E33RAB04E13B33 SLP313 P0000 I1000 T00220022 =
2018-02-21 14:19 METAR KDKK 211919Z AUTO 29007KT 10SM UP SCT014 OVC035 02/02 A3045 RMK AO2
                 UPE04B13RAB04E13 P0000 I1000 T00220022 =
2018-02-21 14:05 METAR KDKK 211905Z AUTO 27007KT 7SM -RA SCT006 OVC014 03/02 A3045 RMK AO2
                 UPE04RAB04 PRESRR P0000 T00280022 =
2018-02-21 13:53 METAR KDKK 211853Z AUTO 28007KT 4SM UP BR BKN006 OVC010 03/02 A3043 RMK AO2
                 RAE1758B23E39UPB39 CIG 003V009 SLP308 P0000 T00280022 =
2018-02-21 13:45 METAR KDKK 211845Z AUTO 28006KT 3SM UP BR OVC006 03/03 A3042 RMK AO2
                 RAE1758B23E39UPB39 CIG 002V009 P0000 T00280028 =
2018-02-21 13:29 METAR KDKK 211829Z AUTO 28007KT 2 1/2SM -RA BR OVC003 03/03 A3041 RMK AO2
                 RAE1758B23 P0000 T00330033 =
2018-02-21 13:10 METAR KDKK 211810Z AUTO 31006KT 2 1/2SM BR BKN004 OVC009 04/04 A3041 RMK AO2
                 RAE1758 P0000 T00390039 =
2018-02-21 13:00 METAR KDKK 211800Z AUTO 34005KT 2 1/2SM BR OVC006 04/04 A3040 RMK AO2 RAE1758
                 P0000 T00390039 =
2018-02-21 12:53 METAR KDKK 211753Z AUTO 34005KT 3SM -RA BR BKN006 OVC010 04/03 A3039 RMK AO2
                 PRESRR SLP294 P0000 60011 T00390033 10189 20039 51053 =

Support USWX by starting your Amazon purchase here.